createdAt,value
2022-08-31T00:00:33.811Z,15.95
2022-08-31T00:01:33.818Z,15.91
2022-08-31T00:02:33.854Z,15.92
2022-08-31T00:03:33.774Z,15.94
2022-08-31T00:04:33.838Z,15.84
2022-08-31T00:05:33.752Z,15.86
2022-08-31T00:06:33.742Z,15.90
2022-08-31T00:07:33.753Z,15.88
2022-08-31T00:08:33.756Z,15.86
2022-08-31T00:09:33.706Z,15.75
2022-08-31T00:10:36.979Z,15.84
2022-08-31T00:11:33.709Z,15.83
2022-08-31T00:12:33.702Z,15.79
2022-08-31T00:13:33.673Z,15.79
2022-08-31T00:14:33.762Z,15.83
2022-08-31T00:15:33.687Z,15.88
2022-08-31T00:16:33.671Z,15.83
2022-08-31T00:17:33.634Z,15.77
2022-08-31T00:18:33.605Z,15.77
2022-08-31T00:19:33.593Z,15.77
2022-08-31T00:20:34.842Z,15.80
2022-08-31T00:21:33.596Z,15.83
2022-08-31T00:22:33.564Z,15.73
2022-08-31T00:23:33.551Z,15.73
2022-08-31T00:24:33.540Z,15.75
2022-08-31T00:25:33.572Z,15.76
2022-08-31T00:26:33.563Z,15.73
2022-08-31T00:27:33.509Z,15.75
2022-08-31T00:28:33.503Z,15.72
2022-08-31T00:29:33.609Z,15.70
2022-08-31T00:30:33.471Z,15.76
2022-08-31T00:31:33.536Z,15.62
2022-08-31T00:32:33.473Z,15.64
2022-08-31T00:33:33.434Z,15.62
2022-08-31T00:34:33.449Z,15.59
2022-08-31T00:35:34.189Z,15.59
2022-08-31T00:36:33.405Z,15.62
2022-08-31T00:37:33.528Z,15.59
2022-08-31T00:38:33.387Z,15.58
2022-08-31T00:39:33.375Z,15.57
2022-08-31T00:40:33.469Z,15.54
2022-08-31T00:41:35.728Z,15.54
2022-08-31T00:42:33.357Z,15.55
2022-08-31T00:43:33.328Z,15.52
2022-08-31T00:44:33.323Z,15.46
2022-08-31T00:45:33.341Z,15.47
2022-08-31T00:46:33.354Z,15.52
2022-08-31T00:47:33.278Z,15.57
2022-08-31T00:48:33.268Z,15.51
2022-08-31T00:49:33.257Z,15.52
2022-08-31T00:50:33.241Z,15.54
2022-08-31T00:51:33.235Z,15.52
2022-08-31T00:52:37.541Z,15.46
2022-08-31T00:53:33.212Z,15.52
2022-08-31T00:54:33.209Z,15.49
2022-08-31T00:55:33.212Z,15.54
2022-08-31T00:56:33.183Z,15.52
2022-08-31T00:57:34.552Z,15.54
2022-08-31T00:58:33.161Z,15.57
2022-08-31T00:59:33.142Z,15.51
2022-08-31T01:00:33.168Z,15.54
2022-08-31T01:01:33.237Z,15.47
2022-08-31T01:02:33.179Z,15.49
2022-08-31T01:03:35.615Z,15.49
2022-08-31T01:04:33.094Z,15.49
2022-08-31T01:05:33.084Z,15.39
2022-08-31T01:06:33.062Z,15.33
2022-08-31T01:07:33.055Z,15.43
2022-08-31T01:08:33.072Z,15.35
2022-08-31T01:09:33.034Z,15.39
2022-08-31T01:10:33.017Z,15.44
2022-08-31T01:11:33.010Z,15.37
2022-08-31T01:12:33.000Z,15.37
2022-08-31T01:13:38.984Z,15.44
2022-08-31T01:14:32.978Z,15.28
2022-08-31T01:15:32.962Z,15.39
2022-08-31T01:16:33.208Z,15.35
2022-08-31T01:17:32.962Z,15.35
2022-08-31T01:18:32.930Z,15.37
2022-08-31T01:19:32.918Z,15.31
2022-08-31T01:20:33.062Z,15.31
2022-08-31T01:21:32.899Z,15.25
2022-08-31T01:22:32.909Z,15.27
2022-08-31T01:23:32.873Z,15.31
2022-08-31T01:24:32.861Z,15.28
2022-08-31T01:25:33.874Z,15.33
2022-08-31T01:26:32.861Z,15.22
2022-08-31T01:27:32.829Z,15.27
2022-08-31T01:28:32.817Z,15.27
2022-08-31T01:29:32.826Z,15.19
2022-08-31T01:30:32.818Z,15.19
2022-08-31T01:31:32.872Z,15.24
2022-08-31T01:32:32.807Z,15.22
2022-08-31T01:33:32.792Z,15.15
2022-08-31T01:34:32.781Z,15.14
2022-08-31T01:35:32.739Z,15.09
2022-08-31T01:36:32.746Z,15.21
2022-08-31T01:37:32.730Z,15.21
2022-08-31T01:38:32.707Z,15.19
2022-08-31T01:39:32.772Z,15.25
2022-08-31T01:40:32.736Z,15.15
2022-08-31T01:41:32.669Z,15.04
2022-08-31T01:42:34.245Z,15.06
2022-08-31T01:43:32.659Z,15.04
2022-08-31T01:44:32.666Z,15.03
2022-08-31T01:45:32.630Z,15.09
2022-08-31T01:46:32.680Z,15.09
2022-08-31T01:47:32.609Z,15.09
2022-08-31T01:48:32.596Z,15.14
2022-08-31T01:49:32.760Z,15.17
2022-08-31T01:50:32.582Z,15.15
2022-08-31T01:51:32.565Z,15.17
2022-08-31T01:52:32.546Z,15.24
2022-08-31T01:53:32.541Z,15.21
2022-08-31T01:54:32.558Z,15.21
2022-08-31T01:55:32.532Z,15.19
2022-08-31T01:56:32.646Z,15.25
2022-08-31T01:57:33.398Z,15.25
2022-08-31T01:58:32.529Z,15.39
2022-08-31T01:59:34.596Z,15.47
2022-08-31T02:00:32.516Z,15.46
2022-08-31T02:01:33.472Z,15.55
2022-08-31T02:02:32.491Z,15.49
2022-08-31T02:03:32.426Z,15.52
2022-08-31T02:04:32.459Z,15.55
2022-08-31T02:05:32.408Z,15.61
2022-08-31T02:06:32.401Z,15.68
2022-08-31T02:07:32.408Z,15.70
2022-08-31T02:08:32.372Z,15.75
2022-08-31T02:09:32.386Z,15.72
2022-08-31T02:10:33.209Z,15.68
2022-08-31T02:11:32.417Z,15.82
2022-08-31T02:12:32.325Z,15.79
2022-08-31T02:13:32.481Z,15.80
2022-08-31T02:14:34.525Z,15.75
2022-08-31T02:15:32.296Z,15.76
2022-08-31T02:16:32.384Z,15.75
2022-08-31T02:17:32.273Z,15.76
2022-08-31T02:18:32.259Z,15.75
2022-08-31T02:19:32.292Z,15.79
2022-08-31T02:20:32.233Z,15.76
2022-08-31T02:21:32.226Z,15.77
2022-08-31T02:22:32.218Z,15.84
2022-08-31T02:23:32.201Z,15.91
2022-08-31T02:24:32.195Z,15.97
2022-08-31T02:25:32.195Z,16.00
2022-08-31T02:26:32.179Z,15.94
2022-08-31T02:27:32.157Z,16.00
2022-08-31T02:28:32.163Z,16.01
2022-08-31T02:29:32.135Z,16.05
2022-08-31T02:30:32.121Z,16.01
2022-08-31T02:31:32.226Z,16.05
2022-08-31T02:32:35.767Z,16.02
2022-08-31T02:33:32.089Z,16.02
2022-08-31T02:34:39.241Z,16.13
2022-08-31T02:35:32.070Z,16.04
2022-08-31T02:36:32.059Z,16.05
2022-08-31T02:37:32.045Z,16.01
2022-08-31T02:38:32.031Z,16.08
2022-08-31T02:39:32.035Z,16.04
2022-08-31T02:40:32.132Z,16.08
2022-08-31T02:41:32.060Z,16.12
2022-08-31T02:42:39.402Z,16.09
2022-08-31T02:43:32.981Z,16.17
2022-08-31T02:44:31.989Z,16.12
2022-08-31T02:45:32.130Z,16.15
2022-08-31T02:46:34.466Z,16.20
2022-08-31T02:47:31.932Z,16.05
2022-08-31T02:48:31.919Z,16.15
2022-08-31T02:49:31.909Z,16.15
2022-08-31T02:50:31.922Z,16.05
2022-08-31T02:51:31.885Z,16.12
2022-08-31T02:52:31.875Z,16.17
2022-08-31T02:53:31.864Z,16.15
2022-08-31T02:54:31.856Z,16.17
2022-08-31T02:55:31.860Z,16.16
2022-08-31T02:56:31.832Z,16.13
2022-08-31T02:57:31.819Z,16.05
2022-08-31T02:58:31.810Z,16.09
2022-08-31T02:59:31.796Z,16.05
2022-08-31T03:00:31.859Z,16.04
2022-08-31T03:01:31.903Z,16.02
2022-08-31T03:02:32.425Z,16.13
2022-08-31T03:03:31.745Z,16.05
2022-08-31T03:04:31.738Z,16.12
2022-08-31T03:05:31.749Z,16.10
2022-08-31T03:06:31.720Z,16.00
2022-08-31T03:07:31.713Z,15.98
2022-08-31T03:08:31.736Z,16.01
2022-08-31T03:09:31.684Z,15.92
2022-08-31T03:10:31.679Z,15.98
2022-08-31T03:11:31.659Z,15.92
2022-08-31T03:12:31.658Z,15.90
2022-08-31T03:13:31.973Z,15.97
2022-08-31T03:14:31.647Z,15.97
2022-08-31T03:15:31.663Z,15.91
2022-08-31T03:16:31.605Z,15.98
2022-08-31T03:17:31.745Z,15.94
2022-08-31T03:18:31.583Z,15.82
2022-08-31T03:19:32.468Z,15.90
2022-08-31T03:20:31.561Z,15.79
2022-08-31T03:21:31.551Z,15.82
2022-08-31T03:22:31.548Z,15.82
2022-08-31T03:23:31.638Z,15.92
2022-08-31T03:24:31.532Z,15.97
2022-08-31T03:25:31.506Z,15.90
2022-08-31T03:26:31.494Z,15.88
2022-08-31T03:27:31.487Z,15.97
2022-08-31T03:28:31.474Z,15.98
2022-08-31T03:29:31.490Z,15.82
2022-08-31T03:30:31.608Z,15.97
2022-08-31T03:31:31.514Z,15.80
2022-08-31T03:32:31.705Z,15.88
2022-08-31T03:33:31.423Z,15.88
2022-08-31T03:34:31.402Z,15.92
2022-08-31T03:35:31.437Z,15.79
2022-08-31T03:36:31.683Z,15.80
2022-08-31T03:37:31.372Z,15.73
2022-08-31T03:38:31.361Z,15.73
2022-08-31T03:39:31.367Z,15.76
2022-08-31T03:40:31.494Z,15.73
2022-08-31T03:41:31.332Z,15.75
2022-08-31T03:42:31.964Z,15.65
2022-08-31T03:43:31.305Z,15.70
2022-08-31T03:44:31.315Z,15.59
2022-08-31T03:45:31.280Z,15.49
2022-08-31T03:46:31.338Z,15.52
2022-08-31T03:47:31.271Z,15.47
2022-08-31T03:48:31.244Z,15.55
2022-08-31T03:49:31.453Z,15.47
2022-08-31T03:50:31.223Z,15.43
2022-08-31T03:51:31.212Z,15.47
2022-08-31T03:52:31.203Z,15.42
2022-08-31T03:53:31.248Z,15.36
2022-08-31T03:54:32.809Z,15.37
2022-08-31T03:55:31.177Z,15.40
2022-08-31T03:56:31.161Z,15.25
2022-08-31T03:57:31.148Z,15.31
2022-08-31T03:58:31.148Z,15.27
2022-08-31T03:59:36.350Z,15.33
2022-08-31T04:00:31.117Z,15.22
2022-08-31T04:01:31.195Z,15.24
2022-08-31T04:02:35.491Z,15.29
2022-08-31T04:03:35.024Z,15.24
2022-08-31T04:04:31.064Z,15.27
2022-08-31T04:05:31.057Z,15.29
2022-08-31T04:06:31.113Z,15.31
2022-08-31T04:07:31.140Z,15.29
2022-08-31T04:08:32.035Z,15.28
2022-08-31T04:09:31.029Z,15.33
2022-08-31T04:10:31.006Z,15.39
2022-08-31T04:11:45.437Z,15.46
2022-08-31T04:12:32.309Z,15.40
2022-08-31T04:13:30.992Z,15.42
2022-08-31T04:14:33.172Z,15.55
2022-08-31T04:15:31.073Z,15.54
2022-08-31T04:16:30.930Z,15.47
2022-08-31T04:17:30.927Z,15.49
2022-08-31T04:18:30.908Z,15.52
2022-08-31T04:19:31.609Z,15.54
2022-08-31T04:20:30.908Z,15.52
2022-08-31T04:21:30.885Z,15.51
2022-08-31T04:22:30.896Z,15.49
2022-08-31T04:23:30.883Z,15.54
2022-08-31T04:24:30.848Z,15.55
2022-08-31T04:25:30.832Z,15.46
2022-08-31T04:26:30.838Z,15.49
2022-08-31T04:27:30.877Z,15.43
2022-08-31T04:28:30.792Z,15.44
2022-08-31T04:29:30.816Z,15.47
2022-08-31T04:30:30.777Z,15.44
2022-08-31T04:31:30.854Z,15.40
2022-08-31T04:32:30.772Z,15.51
2022-08-31T04:33:40.282Z,15.39
2022-08-31T04:34:40.307Z,15.43
2022-08-31T04:35:30.720Z,15.42
2022-08-31T04:36:30.738Z,15.43
2022-08-31T04:37:30.698Z,15.40
2022-08-31T04:38:30.682Z,15.44
2022-08-31T04:39:32.293Z,15.44
2022-08-31T04:40:30.873Z,15.39
2022-08-31T04:41:30.675Z,15.25
2022-08-31T04:42:30.640Z,15.29
2022-08-31T04:43:30.640Z,15.25
2022-08-31T04:44:30.621Z,15.24
2022-08-31T04:45:30.667Z,15.42
2022-08-31T04:46:30.802Z,15.36
2022-08-31T04:47:30.636Z,15.40
2022-08-31T04:48:30.570Z,15.43
2022-08-31T04:49:30.573Z,15.42
2022-08-31T04:50:30.550Z,15.39
2022-08-31T04:51:30.569Z,15.29
2022-08-31T04:52:30.578Z,15.28
2022-08-31T04:53:30.548Z,15.36
2022-08-31T04:54:30.506Z,15.31
2022-08-31T04:55:30.601Z,15.24
2022-08-31T04:56:30.483Z,15.28
2022-08-31T04:57:30.842Z,15.39
2022-08-31T04:58:30.483Z,15.36
2022-08-31T04:59:30.455Z,15.36
2022-08-31T05:00:30.437Z,15.43
2022-08-31T05:01:36.059Z,15.39
2022-08-31T05:02:31.505Z,15.28
2022-08-31T05:03:30.415Z,15.27
2022-08-31T05:04:30.391Z,15.39
2022-08-31T05:05:30.397Z,15.31
2022-08-31T05:06:30.375Z,15.27
2022-08-31T05:07:30.389Z,15.40
2022-08-31T05:08:30.350Z,15.39
2022-08-31T05:09:30.349Z,15.28
2022-08-31T05:10:30.324Z,15.33
2022-08-31T05:11:30.318Z,15.37
2022-08-31T05:12:30.332Z,15.39
2022-08-31T05:13:30.292Z,15.27
2022-08-31T05:14:31.269Z,15.31
2022-08-31T05:15:30.489Z,15.40
2022-08-31T05:16:30.306Z,15.37
2022-08-31T05:17:30.248Z,15.39
2022-08-31T05:18:30.383Z,15.35
2022-08-31T05:19:30.236Z,15.40
2022-08-31T05:20:30.210Z,15.43
2022-08-31T05:21:30.203Z,15.39
2022-08-31T05:22:30.842Z,15.44
2022-08-31T05:23:30.204Z,15.44
2022-08-31T05:24:30.188Z,15.52
2022-08-31T05:25:30.156Z,15.52
2022-08-31T05:26:30.146Z,15.52
2022-08-31T05:27:30.136Z,15.51
2022-08-31T05:28:30.124Z,15.55
2022-08-31T05:29:30.165Z,15.51
2022-08-31T05:30:30.100Z,15.59
2022-08-31T05:31:30.488Z,15.67
2022-08-31T05:32:30.085Z,15.68
2022-08-31T05:33:30.088Z,15.65
2022-08-31T05:34:30.098Z,15.75
2022-08-31T05:35:30.822Z,15.80
2022-08-31T05:36:30.033Z,15.92
2022-08-31T05:37:30.049Z,15.94
2022-08-31T05:38:30.036Z,16.00
2022-08-31T05:39:30.004Z,16.04
2022-08-31T05:40:30.051Z,16.04
2022-08-31T05:41:29.982Z,16.02
2022-08-31T05:42:29.966Z,16.02
2022-08-31T05:43:29.955Z,16.05
2022-08-31T05:44:29.974Z,16.12
2022-08-31T05:45:29.937Z,16.08
2022-08-31T05:46:29.998Z,16.24
2022-08-31T05:47:29.933Z,16.17
2022-08-31T05:48:30.841Z,16.24
2022-08-31T05:49:29.891Z,16.24
2022-08-31T05:50:29.876Z,16.36
2022-08-31T05:51:29.876Z,16.35
2022-08-31T05:52:29.854Z,16.46
2022-08-31T05:53:29.863Z,16.41
2022-08-31T05:54:29.998Z,16.46
2022-08-31T05:55:29.827Z,16.54
2022-08-31T05:56:29.812Z,16.68
2022-08-31T05:57:29.880Z,16.71
2022-08-31T05:58:29.839Z,16.96
2022-08-31T05:59:29.787Z,16.99
2022-08-31T06:00:29.765Z,17.14
2022-08-31T06:01:29.785Z,17.23
2022-08-31T06:02:29.758Z,17.38
2022-08-31T06:03:29.732Z,17.36
2022-08-31T06:04:29.749Z,17.19
2022-08-31T06:05:29.766Z,17.31
2022-08-31T06:06:29.698Z,17.51
2022-08-31T06:07:29.950Z,17.70
2022-08-31T06:08:29.693Z,17.95
2022-08-31T06:09:29.687Z,17.97
2022-08-31T06:10:29.650Z,18.22
2022-08-31T06:11:29.692Z,18.44
2022-08-31T06:12:29.628Z,18.84
2022-08-31T06:13:30.031Z,19.21
2022-08-31T06:14:29.631Z,19.66
2022-08-31T06:15:29.597Z,19.85
2022-08-31T06:16:29.646Z,19.66
2022-08-31T06:17:29.580Z,19.49
2022-08-31T06:18:29.567Z,19.69
2022-08-31T06:19:29.570Z,20.26
2022-08-31T06:20:29.545Z,20.52
2022-08-31T06:21:29.529Z,20.78
2022-08-31T06:22:30.291Z,21.29
2022-08-31T06:23:29.510Z,21.62
2022-08-31T06:24:29.509Z,21.30
2022-08-31T06:25:29.484Z,20.82
2022-08-31T06:26:30.291Z,20.80
2022-08-31T06:27:29.468Z,21.50
2022-08-31T06:28:29.472Z,22.25
2022-08-31T06:29:29.467Z,22.65
2022-08-31T06:30:29.436Z,23.03
2022-08-31T06:31:29.555Z,23.15
2022-08-31T06:32:29.407Z,23.47
2022-08-31T06:33:29.412Z,23.74
2022-08-31T06:34:29.534Z,23.59
2022-08-31T06:35:29.387Z,23.56
2022-08-31T06:36:29.509Z,23.41
2022-08-31T06:37:29.353Z,23.40
2022-08-31T06:38:32.803Z,23.48
2022-08-31T06:39:30.384Z,23.63
2022-08-31T06:40:29.413Z,24.24
2022-08-31T06:41:32.175Z,24.11
2022-08-31T06:42:30.291Z,24.36
2022-08-31T06:43:29.332Z,24.36
2022-08-31T06:44:29.269Z,24.45
2022-08-31T06:45:29.507Z,25.18
2022-08-31T06:46:29.304Z,25.91
2022-08-31T06:47:29.244Z,26.38
2022-08-31T06:48:29.420Z,26.95
2022-08-31T06:49:29.228Z,27.21
2022-08-31T06:50:29.215Z,27.37
2022-08-31T06:51:29.206Z,27.63
2022-08-31T06:52:29.251Z,28.04
2022-08-31T06:53:29.199Z,28.49
2022-08-31T06:54:30.479Z,29.04
2022-08-31T06:55:29.174Z,29.45
2022-08-31T06:56:29.145Z,28.14
2022-08-31T06:57:29.128Z,27.75
2022-08-31T06:58:29.861Z,28.32
2022-08-31T06:59:29.958Z,28.89
2022-08-31T07:00:29.113Z,29.49
2022-08-31T07:01:35.636Z,30.08
2022-08-31T07:02:30.150Z,30.18
2022-08-31T07:03:29.087Z,30.28
2022-08-31T07:04:29.389Z,30.51
2022-08-31T07:05:29.076Z,30.59
2022-08-31T07:06:29.058Z,31.15
2022-08-31T07:07:29.992Z,31.36
2022-08-31T07:08:29.032Z,31.58
2022-08-31T07:09:29.016Z,31.87
2022-08-31T07:10:29.009Z,31.55
2022-08-31T07:11:28.994Z,31.70
2022-08-31T07:12:28.993Z,31.46
2022-08-31T07:13:29.403Z,31.66
2022-08-31T07:14:28.962Z,32.21
2022-08-31T07:15:29.147Z,32.77
2022-08-31T07:16:29.036Z,33.00
2022-08-31T07:17:28.935Z,32.26
2022-08-31T07:18:28.932Z,32.45
2022-08-31T07:19:28.945Z,33.22
2022-08-31T07:20:28.897Z,34.03
2022-08-31T07:21:28.982Z,33.94
2022-08-31T07:22:28.878Z,34.13
2022-08-31T07:23:28.868Z,34.06
2022-08-31T07:24:28.854Z,34.29
2022-08-31T07:25:28.844Z,33.95
2022-08-31T07:26:29.653Z,34.01
2022-08-31T07:27:28.830Z,34.16
2022-08-31T07:28:28.820Z,34.54
2022-08-31T07:29:28.801Z,34.16
2022-08-31T07:30:29.015Z,33.58
2022-08-31T07:31:28.803Z,32.87
2022-08-31T07:32:28.819Z,33.17
2022-08-31T07:33:28.767Z,33.22
2022-08-31T07:34:28.772Z,33.30
2022-08-31T07:35:28.736Z,34.13
2022-08-31T07:36:29.065Z,34.42
2022-08-31T07:37:28.739Z,33.42
2022-08-31T07:38:28.711Z,33.32
2022-08-31T07:39:28.704Z,33.36
2022-08-31T07:40:28.796Z,31.46
2022-08-31T07:41:28.701Z,31.21
2022-08-31T07:42:28.673Z,31.03
2022-08-31T07:43:28.715Z,30.97
2022-08-31T07:44:28.645Z,31.42
2022-08-31T07:45:29.229Z,31.61
2022-08-31T07:46:28.718Z,31.61
2022-08-31T07:47:29.386Z,30.92
2022-08-31T07:48:28.601Z,30.53
2022-08-31T07:49:28.591Z,31.17
2022-08-31T07:50:28.574Z,32.46
2022-08-31T07:51:28.633Z,33.64
2022-08-31T07:52:28.559Z,34.16
2022-08-31T07:53:28.565Z,33.31
2022-08-31T07:54:28.546Z,32.90
2022-08-31T07:55:28.553Z,33.23
2022-08-31T07:56:30.855Z,33.96
2022-08-31T07:57:28.533Z,32.77
2022-08-31T07:58:28.498Z,32.53
2022-08-31T07:59:28.492Z,32.01
2022-08-31T08:00:28.507Z,31.42
2022-08-31T08:01:28.491Z,31.37
2022-08-31T08:02:28.808Z,30.88
2022-08-31T08:03:28.450Z,30.53
2022-08-31T08:04:28.439Z,30.88
2022-08-31T08:05:29.047Z,31.52
2022-08-31T08:06:28.571Z,32.07
2022-08-31T08:07:28.407Z,31.93
2022-08-31T08:08:28.391Z,31.36
2022-08-31T08:09:28.412Z,32.26
2022-08-31T08:10:28.433Z,33.23
2022-08-31T08:11:28.363Z,33.64
2022-08-31T08:12:28.350Z,32.65
2022-08-31T08:13:32.502Z,32.52
2022-08-31T08:14:30.207Z,32.26
2022-08-31T08:15:28.393Z,32.83
2022-08-31T08:16:28.368Z,31.44
2022-08-31T08:17:28.417Z,32.15
2022-08-31T08:18:28.289Z,31.44
2022-08-31T08:19:28.469Z,32.58
2022-08-31T08:20:34.646Z,34.13
2022-08-31T08:21:29.903Z,35.23
2022-08-31T08:22:50.926Z,35.07
2022-08-31T08:23:29.356Z,33.59
2022-08-31T08:24:28.225Z,33.81
2022-08-31T08:25:28.902Z,34.60
2022-08-31T08:26:28.231Z,32.87
2022-08-31T08:27:28.226Z,32.19
2022-08-31T08:28:39.205Z,33.42
2022-08-31T08:29:29.903Z,33.09
2022-08-31T08:30:28.166Z,34.17
2022-08-31T08:31:28.222Z,34.70
2022-08-31T08:32:28.145Z,35.14
2022-08-31T08:33:28.135Z,35.27
2022-08-31T08:34:32.187Z,34.55
2022-08-31T08:35:28.113Z,34.45
2022-08-31T08:36:28.336Z,32.87
2022-08-31T08:37:54.197Z,32.51
2022-08-31T08:38:29.106Z,32.83
2022-08-31T08:39:28.088Z,31.89
2022-08-31T08:40:28.211Z,31.25
2022-08-31T08:41:28.033Z,32.78
2022-08-31T08:42:28.024Z,33.23
2022-08-31T08:43:30.902Z,34.43
2022-08-31T08:44:28.018Z,33.87
2022-08-31T08:45:28.071Z,32.97
2022-08-31T08:47:38.468Z,32.43
2022-08-31T08:47:38.610Z,32.31
2022-08-31T08:48:28.965Z,32.73
2022-08-31T08:49:27.976Z,33.47
2022-08-31T08:50:27.953Z,32.45
2022-08-31T08:51:27.931Z,32.15
2022-08-31T08:52:27.924Z,32.87
2022-08-31T08:53:28.895Z,34.20
2022-08-31T08:54:27.907Z,34.86
2022-08-31T08:55:29.111Z,35.46
2022-08-31T08:56:33.690Z,36.58
2022-08-31T08:57:28.924Z,36.72
2022-08-31T08:58:27.861Z,37.10
2022-08-31T08:59:27.858Z,37.55
2022-08-31T09:00:27.871Z,37.84
2022-08-31T09:01:27.874Z,38.61
2022-08-31T09:02:27.855Z,39.18
2022-08-31T09:03:27.814Z,39.11
2022-08-31T09:04:27.804Z,36.67
2022-08-31T09:05:36.638Z,37.23
2022-08-31T09:06:31.693Z,35.49
2022-08-31T09:07:28.770Z,35.90
2022-08-31T09:08:27.822Z,37.07
2022-08-31T09:09:27.749Z,36.68
2022-08-31T09:10:27.769Z,36.68
2022-08-31T09:11:27.737Z,37.78
2022-08-31T09:12:27.755Z,37.94
2022-08-31T09:13:27.713Z,36.54
2022-08-31T09:14:27.960Z,34.64
2022-08-31T09:15:27.715Z,32.73
2022-08-31T09:16:27.786Z,32.95
2022-08-31T09:17:27.679Z,32.01
2022-08-31T09:18:27.679Z,30.75
2022-08-31T09:19:27.653Z,31.44
2022-08-31T09:20:29.579Z,30.68
2022-08-31T09:21:27.640Z,30.16
2022-08-31T09:22:27.627Z,30.39
2022-08-31T09:23:27.737Z,29.17
2022-08-31T09:24:27.630Z,28.25
2022-08-31T09:25:29.701Z,29.19
2022-08-31T09:26:27.647Z,30.12
2022-08-31T09:27:27.631Z,29.38
2022-08-31T09:28:27.570Z,28.42
2022-08-31T09:29:27.627Z,28.66
2022-08-31T09:30:27.634Z,28.79
2022-08-31T09:31:27.576Z,28.85
2022-08-31T09:32:27.528Z,28.94
2022-08-31T09:33:27.512Z,30.62
2022-08-31T09:34:27.500Z,31.46
2022-08-31T09:35:27.516Z,30.91
2022-08-31T09:36:27.502Z,31.05
2022-08-31T09:37:27.474Z,31.39
2022-08-31T09:38:27.458Z,32.58
2022-08-31T09:39:28.619Z,31.85
2022-08-31T09:40:27.600Z,31.47
2022-08-31T09:41:27.429Z,32.19
2022-08-31T09:42:27.419Z,31.80
2022-08-31T09:43:27.425Z,31.65
2022-08-31T09:44:27.400Z,31.58
2022-08-31T09:45:27.399Z,31.40
2022-08-31T09:46:28.391Z,31.71
2022-08-31T09:47:27.364Z,32.00
2022-08-31T09:48:27.377Z,31.02
2022-08-31T09:49:27.364Z,30.23
2022-08-31T09:50:27.342Z,31.31
2022-08-31T09:51:27.329Z,32.12
2022-08-31T09:52:27.316Z,31.33
2022-08-31T09:53:27.345Z,29.68
2022-08-31T09:54:27.301Z,29.24
2022-08-31T09:55:27.311Z,30.77
2022-08-31T09:56:27.271Z,30.83
2022-08-31T09:57:27.446Z,30.63
2022-08-31T09:58:27.275Z,30.48
2022-08-31T09:59:27.269Z,29.84
2022-08-31T10:00:27.272Z,29.47
2022-08-31T10:01:27.313Z,28.66
2022-08-31T10:02:27.213Z,28.70
2022-08-31T10:03:27.461Z,29.66
2022-08-31T10:04:27.211Z,30.54
2022-08-31T10:05:27.211Z,30.24
2022-08-31T10:06:27.206Z,30.10
2022-08-31T10:07:27.158Z,31.06
2022-08-31T10:08:27.384Z,31.99
2022-08-31T10:09:27.137Z,31.85
2022-08-31T10:10:31.204Z,31.39
2022-08-31T10:11:27.114Z,32.52
2022-08-31T10:12:27.104Z,32.52
2022-08-31T10:13:27.094Z,32.78
2022-08-31T10:14:27.931Z,33.42
2022-08-31T10:15:27.069Z,34.06
2022-08-31T10:16:27.172Z,33.96
2022-08-31T10:17:32.120Z,32.31
2022-08-31T10:18:28.067Z,31.15
2022-08-31T10:19:27.063Z,29.79
2022-08-31T10:20:30.429Z,29.23
2022-08-31T10:21:27.011Z,28.72
2022-08-31T10:22:27.046Z,28.47
2022-08-31T10:23:27.002Z,27.77
2022-08-31T10:24:27.005Z,27.42
2022-08-31T10:25:26.976Z,27.65
2022-08-31T10:26:26.956Z,27.51
2022-08-31T10:27:26.947Z,27.51
2022-08-31T10:28:26.968Z,27.33
2022-08-31T10:29:26.944Z,27.11
2022-08-31T10:30:26.932Z,27.12
2022-08-31T10:31:26.990Z,27.11
2022-08-31T10:32:26.898Z,28.11
2022-08-31T10:33:26.977Z,29.86
2022-08-31T10:34:26.876Z,29.73
2022-08-31T10:35:26.882Z,28.81
2022-08-31T10:36:26.863Z,27.98
2022-08-31T10:37:26.845Z,26.88
2022-08-31T10:38:26.836Z,27.75
2022-08-31T10:39:29.576Z,29.27
2022-08-31T10:40:26.838Z,30.48
2022-08-31T10:41:26.796Z,31.58
2022-08-31T10:42:26.789Z,32.11
2022-08-31T10:43:26.781Z,31.56
2022-08-31T10:44:26.801Z,30.47
2022-08-31T10:45:26.788Z,30.10
2022-08-31T10:46:26.819Z,29.75
2022-08-31T10:47:33.901Z,28.41
2022-08-31T10:48:27.752Z,27.12
2022-08-31T10:49:26.716Z,26.71
2022-08-31T10:50:26.704Z,26.33
2022-08-31T10:51:26.688Z,25.85
2022-08-31T10:52:26.826Z,26.44
2022-08-31T10:53:26.671Z,25.69
2022-08-31T10:54:26.685Z,25.06
2022-08-31T10:55:26.651Z,24.73
2022-08-31T10:56:26.656Z,24.81
2022-08-31T10:57:31.438Z,25.03
2022-08-31T10:58:27.620Z,25.81
2022-08-31T10:59:26.635Z,28.04
2022-08-31T11:00:26.599Z,29.41
2022-08-31T11:01:26.673Z,29.49
2022-08-31T11:02:26.575Z,30.30
2022-08-31T11:03:26.625Z,29.61
2022-08-31T11:04:27.380Z,29.72
2022-08-31T11:05:26.608Z,28.63
2022-08-31T11:06:26.539Z,28.00
2022-08-31T11:07:26.526Z,27.26
2022-08-31T11:08:26.535Z,26.77
2022-08-31T11:09:26.505Z,26.28
2022-08-31T11:10:26.513Z,25.93
2022-08-31T11:11:26.716Z,25.80
2022-08-31T11:12:26.478Z,25.83
2022-08-31T11:13:26.477Z,26.15
2022-08-31T11:14:26.449Z,26.43
2022-08-31T11:15:28.296Z,26.48
2022-08-31T11:16:26.469Z,26.19
2022-08-31T11:17:26.437Z,26.29
2022-08-31T11:18:26.405Z,25.35
2022-08-31T11:19:26.394Z,25.35
2022-08-31T11:20:26.386Z,25.46
2022-08-31T11:21:26.369Z,26.10
2022-08-31T11:22:26.380Z,26.70
2022-08-31T11:23:26.366Z,26.51
2022-08-31T11:24:26.357Z,26.29
2022-08-31T11:25:26.327Z,26.36
2022-08-31T11:26:26.318Z,25.95
2022-08-31T11:27:27.632Z,25.22
2022-08-31T11:28:26.481Z,25.81
2022-08-31T11:29:26.282Z,25.32
2022-08-31T11:30:26.292Z,25.08
2022-08-31T11:31:26.288Z,24.77
2022-08-31T11:32:27.710Z,24.70
2022-08-31T11:33:26.242Z,24.38
2022-08-31T11:34:26.573Z,24.57
2022-08-31T11:35:26.218Z,24.77
2022-08-31T11:36:26.207Z,24.58
2022-08-31T11:37:26.214Z,24.48
2022-08-31T11:38:26.207Z,24.51
2022-08-31T11:39:26.181Z,24.66
2022-08-31T11:40:26.214Z,24.73
2022-08-31T11:41:26.178Z,24.98
2022-08-31T11:42:26.143Z,25.99
2022-08-31T11:43:26.136Z,27.02
2022-08-31T11:44:26.126Z,27.70
2022-08-31T11:45:27.120Z,27.14
2022-08-31T11:46:26.483Z,27.73
2022-08-31T11:47:26.092Z,28.59
2022-08-31T11:48:26.095Z,29.45
2022-08-31T11:49:26.131Z,29.71
2022-08-31T11:50:26.057Z,29.53
2022-08-31T11:51:26.930Z,28.78
2022-08-31T11:52:26.059Z,28.52
2022-08-31T11:53:26.037Z,28.93
2022-08-31T11:54:26.020Z,28.98
2022-08-31T11:55:26.018Z,28.57
2022-08-31T11:56:25.995Z,28.11
2022-08-31T11:57:26.008Z,26.96
2022-08-31T11:58:26.066Z,26.84
2022-08-31T11:59:25.969Z,26.93
2022-08-31T12:00:25.991Z,27.10
2022-08-31T12:01:25.951Z,27.02
2022-08-31T12:02:26.176Z,27.22
2022-08-31T12:03:25.928Z,26.95
2022-08-31T12:04:25.912Z,26.80
2022-08-31T12:05:25.948Z,26.65
2022-08-31T12:06:25.903Z,26.58
2022-08-31T12:07:25.906Z,26.29
2022-08-31T12:08:26.061Z,25.69
2022-08-31T12:09:25.870Z,25.43
2022-08-31T12:10:27.486Z,24.51
2022-08-31T12:11:25.857Z,24.38
2022-08-31T12:12:25.827Z,24.60
2022-08-31T12:13:25.842Z,24.77
2022-08-31T12:14:25.806Z,25.10
2022-08-31T12:15:25.810Z,25.25
2022-08-31T12:16:25.827Z,25.22
2022-08-31T12:17:25.793Z,24.89
2022-08-31T12:18:25.761Z,24.69
2022-08-31T12:19:25.846Z,24.42
2022-08-31T12:20:25.755Z,24.39
2022-08-31T12:21:25.750Z,24.36
2022-08-31T12:22:25.722Z,24.29
2022-08-31T12:23:30.988Z,24.81
2022-08-31T12:24:26.696Z,25.35
2022-08-31T12:25:28.989Z,25.58
2022-08-31T12:26:25.681Z,25.91
2022-08-31T12:27:25.665Z,26.44
2022-08-31T12:28:27.447Z,26.97
2022-08-31T12:29:25.647Z,27.12
2022-08-31T12:30:25.660Z,26.77
2022-08-31T12:31:25.703Z,26.28
2022-08-31T12:32:25.613Z,25.80
2022-08-31T12:33:25.603Z,25.31
2022-08-31T12:34:25.590Z,25.33
2022-08-31T12:35:25.580Z,25.36
2022-08-31T12:36:26.490Z,25.21
2022-08-31T12:37:25.557Z,25.03
2022-08-31T12:38:25.551Z,24.89
2022-08-31T12:39:25.541Z,24.69
2022-08-31T12:40:25.618Z,24.74
2022-08-31T12:41:25.620Z,24.42
2022-08-31T12:42:25.859Z,24.21
2022-08-31T12:43:25.496Z,24.05
2022-08-31T12:44:25.499Z,24.28
2022-08-31T12:45:25.477Z,24.40
2022-08-31T12:46:25.539Z,24.65
2022-08-31T12:47:25.471Z,24.66
2022-08-31T12:48:25.444Z,24.65
2022-08-31T12:49:25.443Z,24.86
2022-08-31T12:50:25.418Z,25.28
2022-08-31T12:51:25.430Z,25.51
2022-08-31T12:52:25.398Z,25.93